sensor_id;sensor_type;location;lat;lon;timestamp;P1;durP1;ratioP1;P2;durP2;ratioP2
29214;SDS011;16252;49.816;7.964;2022-08-19T00:00:35;10.70;;;9.63;;
29214;SDS011;16252;49.816;7.964;2022-08-19T00:03:02;10.40;;;9.38;;
29214;SDS011;16252;49.816;7.964;2022-08-19T00:05:28;11.63;;;10.43;;
29214;SDS011;16252;49.816;7.964;2022-08-19T00:07:53;12.35;;;11.05;;
29214;SDS011;16252;49.816;7.964;2022-08-19T00:10:19;11.20;;;10.00;;
29214;SDS011;16252;49.816;7.964;2022-08-19T00:12:45;11.38;;;9.50;;
29214;SDS011;16252;49.816;7.964;2022-08-19T00:15:12;11.45;;;10.23;;
29214;SDS011;16252;49.816;7.964;2022-08-19T00:17:40;11.63;;;10.40;;
29214;SDS011;16252;49.816;7.964;2022-08-19T00:20:08;11.15;;;9.52;;
29214;SDS011;16252;49.816;7.964;2022-08-19T00:22:42;11.85;;;10.15;;
29214;SDS011;16252;49.816;7.964;2022-08-19T00:25:07;12.63;;;9.98;;
29214;SDS011;16252;49.816;7.964;2022-08-19T00:27:33;10.75;;;9.68;;
29214;SDS011;16252;49.816;7.964;2022-08-19T00:29:59;10.65;;;9.57;;
29214;SDS011;16252;49.816;7.964;2022-08-19T00:32:25;11.32;;;9.52;;
29214;SDS011;16252;49.816;7.964;2022-08-19T00:34:51;10.45;;;9.45;;
29214;SDS011;16252;49.816;7.964;2022-08-19T00:37:17;9.98;;;8.82;;
29214;SDS011;16252;49.816;7.964;2022-08-19T00:39:44;9.80;;;8.80;;
29214;SDS011;16252;49.816;7.964;2022-08-19T00:42:09;10.75;;;9.65;;
29214;SDS011;16252;49.816;7.964;2022-08-19T00:44:35;11.40;;;10.05;;
29214;SDS011;16252;49.816;7.964;2022-08-19T00:47:00;10.70;;;9.20;;
29214;SDS011;16252;49.816;7.964;2022-08-19T00:49:28;11.25;;;10.15;;
29214;SDS011;16252;49.816;7.964;2022-08-19T00:52:12;12.10;;;10.50;;
29214;SDS011;16252;49.816;7.964;2022-08-19T00:54:40;11.43;;;10.00;;
29214;SDS011;16252;49.816;7.964;2022-08-19T00:57:09;11.10;;;9.57;;
29214;SDS011;16252;49.816;7.964;2022-08-19T00:59:40;10.25;;;9.20;;
29214;SDS011;16252;49.816;7.964;2022-08-19T01:02:07;11.35;;;9.98;;
29214;SDS011;16252;49.816;7.964;2022-08-19T01:04:33;11.90;;;10.25;;
29214;SDS011;16252;49.816;7.964;2022-08-19T01:06:58;13.45;;;9.77;;
29214;SDS011;16252;49.816;7.964;2022-08-19T01:09:24;11.18;;;10.07;;
29214;SDS011;16252;49.816;7.964;2022-08-19T01:11:50;12.50;;;10.50;;
29214;SDS011;16252;49.816;7.964;2022-08-19T01:14:16;10.43;;;9.32;;
29214;SDS011;16252;49.816;7.964;2022-08-19T01:16:43;10.65;;;9.43;;
29214;SDS011;16252;49.816;7.964;2022-08-19T01:22:02;12.20;;;10.57;;
29214;SDS011;16252;49.816;7.964;2022-08-19T01:24:53;12.35;;;9.43;;
29214;SDS011;16252;49.816;7.964;2022-08-19T01:27:19;11.57;;;10.02;;
29214;SDS011;16252;49.816;7.964;2022-08-19T01:29:44;11.77;;;10.40;;
29214;SDS011;16252;49.816;7.964;2022-08-19T01:32:11;11.55;;;9.57;;
29214;SDS011;16252;49.816;7.964;2022-08-19T01:34:39;11.20;;;9.88;;
29214;SDS011;16252;49.816;7.964;2022-08-19T01:37:05;11.38;;;9.93;;
29214;SDS011;16252;49.816;7.964;2022-08-19T01:39:33;10.18;;;9.15;;
29214;SDS011;16252;49.816;7.964;2022-08-19T01:41:58;9.48;;;8.57;;
29214;SDS011;16252;49.816;7.964;2022-08-19T01:44:23;10.90;;;9.63;;
29214;SDS011;16252;49.816;7.964;2022-08-19T01:46:49;11.48;;;10.27;;
29214;SDS011;16252;49.816;7.964;2022-08-19T01:49:17;11.32;;;10.02;;
29214;SDS011;16252;49.816;7.964;2022-08-19T01:51:44;11.82;;;10.07;;
29214;SDS011;16252;49.816;7.964;2022-08-19T01:54:10;11.38;;;10.18;;
29214;SDS011;16252;49.816;7.964;2022-08-19T01:56:37;10.75;;;9.68;;
29214;SDS011;16252;49.816;7.964;2022-08-19T01:59:04;10.70;;;9.70;;
29214;SDS011;16252;49.816;7.964;2022-08-19T02:01:35;9.65;;;8.65;;
29214;SDS011;16252;49.816;7.964;2022-08-19T02:04:00;10.85;;;8.93;;
29214;SDS011;16252;49.816;7.964;2022-08-19T02:06:26;11.60;;;10.13;;
29214;SDS011;16252;49.816;7.964;2022-08-19T02:08:52;11.43;;;10.10;;
29214;SDS011;16252;49.816;7.964;2022-08-19T02:11:19;11.55;;;9.90;;
29214;SDS011;16252;49.816;7.964;2022-08-19T02:13:51;10.55;;;9.55;;
29214;SDS011;16252;49.816;7.964;2022-08-19T02:16:18;11.40;;;10.30;;
29214;SDS011;16252;49.816;7.964;2022-08-19T02:18:44;10.98;;;9.75;;
29214;SDS011;16252;49.816;7.964;2022-08-19T02:21:10;11.02;;;9.93;;
29214;SDS011;16252;49.816;7.964;2022-08-19T02:23:36;11.15;;;10.02;;
29214;SDS011;16252;49.816;7.964;2022-08-19T02:26:01;10.43;;;9.32;;
29214;SDS011;16252;49.816;7.964;2022-08-19T02:28:27;10.52;;;9.52;;
29214;SDS011;16252;49.816;7.964;2022-08-19T02:30:52;11.90;;;9.82;;
29214;SDS011;16252;49.816;7.964;2022-08-19T02:33:17;11.15;;;9.95;;
29214;SDS011;16252;49.816;7.964;2022-08-19T02:35:43;10.25;;;9.25;;
29214;SDS011;16252;49.816;7.964;2022-08-19T02:38:10;11.23;;;10.02;;
29214;SDS011;16252;49.816;7.964;2022-08-19T02:41:00;10.80;;;9.65;;
29214;SDS011;16252;49.816;7.964;2022-08-19T02:43:28;12.13;;;10.15;;
29214;SDS011;16252;49.816;7.964;2022-08-19T02:45:55;12.95;;;11.23;;
29214;SDS011;16252;49.816;7.964;2022-08-19T02:48:20;10.52;;;9.43;;
29214;SDS011;16252;49.816;7.964;2022-08-19T02:50:48;10.23;;;9.20;;
29214;SDS011;16252;49.816;7.964;2022-08-19T02:53:20;11.35;;;10.18;;
29214;SDS011;16252;49.816;7.964;2022-08-19T02:55:47;9.90;;;8.90;;
29214;SDS011;16252;49.816;7.964;2022-08-19T02:58:14;11.02;;;9.43;;
29214;SDS011;16252;49.816;7.964;2022-08-19T03:00:41;10.30;;;9.00;;
29214;SDS011;16252;49.816;7.964;2022-08-19T03:03:11;10.45;;;9.32;;
29214;SDS011;16252;49.816;7.964;2022-08-19T03:05:36;10.77;;;9.25;;
29214;SDS011;16252;49.816;7.964;2022-08-19T03:08:02;9.55;;;8.65;;
29214;SDS011;16252;49.816;7.964;2022-08-19T03:10:28;10.40;;;8.82;;
29214;SDS011;16252;49.816;7.964;2022-08-19T03:12:53;10.88;;;8.70;;
29214;SDS011;16252;49.816;7.964;2022-08-19T03:15:18;9.70;;;8.75;;
29214;SDS011;16252;49.816;7.964;2022-08-19T03:17:44;11.05;;;8.82;;
29214;SDS011;16252;49.816;7.964;2022-08-19T03:20:09;9.93;;;8.35;;
29214;SDS011;16252;49.816;7.964;2022-08-19T03:22:35;11.15;;;8.45;;
29214;SDS011;16252;49.816;7.964;2022-08-19T03:25:00;10.55;;;8.80;;
29214;SDS011;16252;49.816;7.964;2022-08-19T03:27:25;11.23;;;8.93;;
29214;SDS011;16252;49.816;7.964;2022-08-19T03:29:51;11.20;;;8.35;;
29214;SDS011;16252;49.816;7.964;2022-08-19T03:32:16;11.00;;;8.18;;
29214;SDS011;16252;49.816;7.964;2022-08-19T03:34:41;8.65;;;7.75;;
29214;SDS011;16252;49.816;7.964;2022-08-19T03:37:08;8.00;;;7.20;;
29214;SDS011;16252;49.816;7.964;2022-08-19T03:39:37;8.00;;;7.20;;
29214;SDS011;16252;49.816;7.964;2022-08-19T03:42:04;9.20;;;7.20;;
29214;SDS011;16252;49.816;7.964;2022-08-19T03:44:30;9.18;;;7.55;;
29214;SDS011;16252;49.816;7.964;2022-08-19T03:46:57;8.10;;;7.18;;
29214;SDS011;16252;49.816;7.964;2022-08-19T03:49:24;8.77;;;7.15;;
29214;SDS011;16252;49.816;7.964;2022-08-19T03:51:53;8.23;;;6.88;;
29214;SDS011;16252;49.816;7.964;2022-08-19T03:54:20;9.13;;;6.85;;
29214;SDS011;16252;49.816;7.964;2022-08-19T03:56:50;7.15;;;6.45;;
29214;SDS011;16252;49.816;7.964;2022-08-19T03:59:21;7.93;;;6.90;;
29214;SDS011;16252;49.816;7.964;2022-08-19T04:01:52;8.00;;;6.93;;
29214;SDS011;16252;49.816;7.964;2022-08-19T04:04:19;9.65;;;7.00;;
29214;SDS011;16252;49.816;7.964;2022-08-19T04:06:44;9.15;;;6.50;;
29214;SDS011;16252;49.816;7.964;2022-08-19T04:09:12;7.55;;;6.72;;
29214;SDS011;16252;49.816;7.964;2022-08-19T04:11:38;7.72;;;6.78;;
29214;SDS011;16252;49.816;7.964;2022-08-19T04:14:13;9.18;;;6.78;;
29214;SDS011;16252;49.816;7.964;2022-08-19T04:16:43;11.80;;;6.85;;
29214;SDS011;16252;49.816;7.964;2022-08-19T04:19:10;10.18;;;6.25;;
29214;SDS011;16252;49.816;7.964;2022-08-19T04:21:36;7.53;;;6.53;;
29214;SDS011;16252;49.816;7.964;2022-08-19T04:24:02;9.82;;;6.43;;
29214;SDS011;16252;49.816;7.964;2022-08-19T04:26:29;17.85;;;6.78;;
29214;SDS011;16252;49.816;7.964;2022-08-19T04:28:58;13.32;;;6.38;;
29214;SDS011;16252;49.816;7.964;2022-08-19T04:31:27;9.43;;;7.03;;
29214;SDS011;16252;49.816;7.964;2022-08-19T04:33:55;10.73;;;7.28;;
29214;SDS011;16252;49.816;7.964;2022-08-19T04:36:26;10.70;;;6.68;;
29214;SDS011;16252;49.816;7.964;2022-08-19T04:38:58;8.73;;;6.97;;
29214;SDS011;16252;49.816;7.964;2022-08-19T04:41:25;9.88;;;6.90;;
29214;SDS011;16252;49.816;7.964;2022-08-19T04:44:09;9.65;;;6.85;;
29214;SDS011;16252;49.816;7.964;2022-08-19T04:46:35;14.55;;;7.38;;
29214;SDS011;16252;49.816;7.964;2022-08-19T04:49:02;16.60;;;7.18;;
29214;SDS011;16252;49.816;7.964;2022-08-19T04:51:29;15.80;;;6.93;;
29214;SDS011;16252;49.816;7.964;2022-08-19T04:53:56;11.02;;;6.82;;
29214;SDS011;16252;49.816;7.964;2022-08-19T04:56:21;11.15;;;6.90;;
29214;SDS011;16252;49.816;7.964;2022-08-19T04:58:49;17.45;;;7.95;;
29214;SDS011;16252;49.816;7.964;2022-08-19T05:01:18;12.25;;;7.28;;
29214;SDS011;16252;49.816;7.964;2022-08-19T05:03:46;9.07;;;7.03;;
29214;SDS011;16252;49.816;7.964;2022-08-19T05:06:13;10.50;;;6.68;;
29214;SDS011;16252;49.816;7.964;2022-08-19T05:08:40;9.48;;;6.90;;
29214;SDS011;16252;49.816;7.964;2022-08-19T05:11:29;8.95;;;6.75;;
29214;SDS011;16252;49.816;7.964;2022-08-19T05:13:55;10.95;;;7.45;;
29214;SDS011;16252;49.816;7.964;2022-08-19T05:16:22;9.30;;;6.63;;
29214;SDS011;16252;49.816;7.964;2022-08-19T05:18:49;12.52;;;7.80;;
29214;SDS011;16252;49.816;7.964;2022-08-19T05:21:33;10.25;;;7.38;;
29214;SDS011;16252;49.816;7.964;2022-08-19T05:24:18;9.27;;;6.55;;
29214;SDS011;16252;49.816;7.964;2022-08-19T05:26:46;8.70;;;6.60;;
29214;SDS011;16252;49.816;7.964;2022-08-19T05:29:14;10.55;;;6.97;;
29214;SDS011;16252;49.816;7.964;2022-08-19T05:31:41;10.38;;;7.10;;
29214;SDS011;16252;49.816;7.964;2022-08-19T05:34:06;14.38;;;7.05;;
29214;SDS011;16252;49.816;7.964;2022-08-19T05:36:34;16.10;;;6.63;;
29214;SDS011;16252;49.816;7.964;2022-08-19T05:39:05;9.90;;;7.30;;
29214;SDS011;16252;49.816;7.964;2022-08-19T05:41:31;8.10;;;7.05;;
29214;SDS011;16252;49.816;7.964;2022-08-19T05:43:58;14.88;;;7.72;;
29214;SDS011;16252;49.816;7.964;2022-08-19T05:46:25;9.73;;;7.13;;
29214;SDS011;16252;49.816;7.964;2022-08-19T05:48:51;11.90;;;7.93;;
29214;SDS011;16252;49.816;7.964;2022-08-19T05:51:16;10.45;;;8.07;;
29214;SDS011;16252;49.816;7.964;2022-08-19T05:53:42;11.45;;;8.05;;
29214;SDS011;16252;49.816;7.964;2022-08-19T05:56:11;12.60;;;7.25;;
29214;SDS011;16252;49.816;7.964;2022-08-19T05:58:40;12.05;;;7.40;;
29214;SDS011;16252;49.816;7.964;2022-08-19T06:01:17;12.68;;;7.78;;
29214;SDS011;16252;49.816;7.964;2022-08-19T06:03:43;10.13;;;7.35;;
29214;SDS011;16252;49.816;7.964;2022-08-19T06:06:10;11.82;;;7.55;;
29214;SDS011;16252;49.816;7.964;2022-08-19T06:08:38;11.35;;;7.93;;
29214;SDS011;16252;49.816;7.964;2022-08-19T06:11:23;14.95;;;8.65;;
29214;SDS011;16252;49.816;7.964;2022-08-19T06:13:57;10.00;;;7.18;;
29214;SDS011;16252;49.816;7.964;2022-08-19T06:16:25;10.10;;;7.53;;
29214;SDS011;16252;49.816;7.964;2022-08-19T06:18:54;11.85;;;7.43;;
29214;SDS011;16252;49.816;7.964;2022-08-19T06:21:22;10.13;;;7.20;;
29214;SDS011;16252;49.816;7.964;2022-08-19T06:23:48;11.57;;;7.22;;
29214;SDS011;16252;49.816;7.964;2022-08-19T06:26:16;8.10;;;6.30;;
29214;SDS011;16252;49.816;7.964;2022-08-19T06:28:43;7.53;;;6.32;;
29214;SDS011;16252;49.816;7.964;2022-08-19T06:31:12;8.05;;;7.13;;
29214;SDS011;16252;49.816;7.964;2022-08-19T06:33:39;8.48;;;7.57;;
29214;SDS011;16252;49.816;7.964;2022-08-19T06:36:05;7.72;;;6.80;;
29214;SDS011;16252;49.816;7.964;2022-08-19T06:38:31;9.80;;;7.25;;
29214;SDS011;16252;49.816;7.964;2022-08-19T06:41:02;8.10;;;6.88;;
29214;SDS011;16252;49.816;7.964;2022-08-19T06:43:28;10.45;;;7.90;;
29214;SDS011;16252;49.816;7.964;2022-08-19T06:45:53;8.13;;;7.32;;
29214;SDS011;16252;49.816;7.964;2022-08-19T06:48:19;10.85;;;7.13;;
29214;SDS011;16252;49.816;7.964;2022-08-19T06:50:44;9.48;;;7.60;;
29214;SDS011;16252;49.816;7.964;2022-08-19T06:53:09;9.13;;;7.32;;
29214;SDS011;16252;49.816;7.964;2022-08-19T06:55:35;9.88;;;7.78;;
29214;SDS011;16252;49.816;7.964;2022-08-19T06:58:04;15.90;;;7.88;;
29214;SDS011;16252;49.816;7.964;2022-08-19T07:00:30;9.27;;;7.63;;
29214;SDS011;16252;49.816;7.964;2022-08-19T07:02:57;14.23;;;7.85;;
29214;SDS011;16252;49.816;7.964;2022-08-19T07:05:23;15.52;;;8.20;;
29214;SDS011;16252;49.816;7.964;2022-08-19T07:07:48;13.43;;;8.68;;
29214;SDS011;16252;49.816;7.964;2022-08-19T07:10:14;10.13;;;8.18;;
29214;SDS011;16252;49.816;7.964;2022-08-19T07:12:39;10.15;;;7.38;;
29214;SDS011;16252;49.816;7.964;2022-08-19T07:15:05;7.75;;;6.88;;
29214;SDS011;16252;49.816;7.964;2022-08-19T07:17:33;7.72;;;6.90;;
29214;SDS011;16252;49.816;7.964;2022-08-19T07:20:02;7.57;;;6.85;;
29214;SDS011;16252;49.816;7.964;2022-08-19T07:22:28;9.95;;;6.85;;
29214;SDS011;16252;49.816;7.964;2022-08-19T07:24:53;9.73;;;7.07;;
29214;SDS011;16252;49.816;7.964;2022-08-19T07:27:19;6.90;;;6.20;;
29214;SDS011;16252;49.816;7.964;2022-08-19T07:29:44;7.85;;;6.70;;
29214;SDS011;16252;49.816;7.964;2022-08-19T07:32:10;9.45;;;6.15;;
29214;SDS011;16252;49.816;7.964;2022-08-19T07:34:36;11.57;;;6.53;;
29214;SDS011;16252;49.816;7.964;2022-08-19T07:37:03;6.95;;;6.25;;
29214;SDS011;16252;49.816;7.964;2022-08-19T07:39:31;8.55;;;6.75;;
29214;SDS011;16252;49.816;7.964;2022-08-19T07:41:58;9.75;;;7.00;;
29214;SDS011;16252;49.816;7.964;2022-08-19T07:44:25;10.63;;;6.90;;
29214;SDS011;16252;49.816;7.964;2022-08-19T07:46:53;7.28;;;6.18;;
29214;SDS011;16252;49.816;7.964;2022-08-19T07:51:50;7.37;;;6.50;;
29214;SDS011;16252;49.816;7.964;2022-08-19T07:54:19;7.57;;;6.75;;
29214;SDS011;16252;49.816;7.964;2022-08-19T07:56:45;7.93;;;5.93;;
29214;SDS011;16252;49.816;7.964;2022-08-19T07:59:11;8.98;;;6.88;;
29214;SDS011;16252;49.816;7.964;2022-08-19T08:01:36;7.38;;;6.18;;
29214;SDS011;16252;49.816;7.964;2022-08-19T08:04:02;8.13;;;7.20;;
29214;SDS011;16252;49.816;7.964;2022-08-19T08:06:46;8.70;;;7.15;;
29214;SDS011;16252;49.816;7.964;2022-08-19T08:09:32;8.70;;;6.22;;
29214;SDS011;16252;49.816;7.964;2022-08-19T08:12:02;6.57;;;5.93;;
29214;SDS011;16252;49.816;7.964;2022-08-19T08:14:36;7.57;;;6.82;;
29214;SDS011;16252;49.816;7.964;2022-08-19T08:17:03;8.70;;;7.75;;
29214;SDS011;16252;49.816;7.964;2022-08-19T08:19:30;10.52;;;9.40;;
29214;SDS011;16252;49.816;7.964;2022-08-19T08:21:57;8.15;;;7.35;;
29214;SDS011;16252;49.816;7.964;2022-08-19T08:24:23;10.95;;;9.68;;
29214;SDS011;16252;49.816;7.964;2022-08-19T08:26:50;13.80;;;9.70;;
29214;SDS011;16252;49.816;7.964;2022-08-19T08:29:15;11.55;;;10.38;;
29214;SDS011;16252;49.816;7.964;2022-08-19T08:31:41;11.63;;;10.02;;
29214;SDS011;16252;49.816;7.964;2022-08-19T08:34:08;12.40;;;10.20;;
29214;SDS011;16252;49.816;7.964;2022-08-19T08:36:42;12.23;;;10.05;;
29214;SDS011;16252;49.816;7.964;2022-08-19T08:39:11;10.05;;;8.93;;
29214;SDS011;16252;49.816;7.964;2022-08-19T08:44:20;11.02;;;9.93;;
29214;SDS011;16252;49.816;7.964;2022-08-19T08:54:42;10.57;;;9.50;;
29214;SDS011;16252;49.816;7.964;2022-08-19T08:57:12;10.27;;;8.88;;
29214;SDS011;16252;49.816;7.964;2022-08-19T08:59:43;10.00;;;8.98;;
29214;SDS011;16252;49.816;7.964;2022-08-19T09:02:16;8.23;;;7.43;;
29214;SDS011;16252;49.816;7.964;2022-08-19T09:04:42;9.98;;;8.98;;
29214;SDS011;16252;49.816;7.964;2022-08-19T09:07:21;9.73;;;8.02;;
29214;SDS011;16252;49.816;7.964;2022-08-19T09:10:04;9.73;;;8.15;;
29214;SDS011;16252;49.816;7.964;2022-08-19T09:12:33;8.23;;;7.43;;
29214;SDS011;16252;49.816;7.964;2022-08-19T09:17:37;7.85;;;7.05;;
29214;SDS011;16252;49.816;7.964;2022-08-19T09:22:39;7.72;;;7.03;;
29214;SDS011;16252;49.816;7.964;2022-08-19T09:25:07;7.53;;;6.82;;
29214;SDS011;16252;49.816;7.964;2022-08-19T09:27:35;7.68;;;6.97;;
29214;SDS011;16252;49.816;7.964;2022-08-19T09:30:02;6.85;;;6.25;;
29214;SDS011;16252;49.816;7.964;2022-08-19T09:32:28;7.05;;;6.45;;
29214;SDS011;16252;49.816;7.964;2022-08-19T09:34:53;6.70;;;6.10;;
29214;SDS011;16252;49.816;7.964;2022-08-19T09:37:19;6.57;;;5.97;;
29214;SDS011;16252;49.816;7.964;2022-08-19T09:39:46;7.20;;;6.50;;
29214;SDS011;16252;49.816;7.964;2022-08-19T09:42:12;6.15;;;5.55;;
29214;SDS011;16252;49.816;7.964;2022-08-19T09:44:39;5.05;;;4.63;;
29214;SDS011;16252;49.816;7.964;2022-08-19T09:47:05;5.65;;;5.15;;
29214;SDS011;16252;49.816;7.964;2022-08-19T09:49:32;5.40;;;4.97;;
29214;SDS011;16252;49.816;7.964;2022-08-19T09:51:57;5.22;;;4.72;;
29214;SDS011;16252;49.816;7.964;2022-08-19T09:54:23;5.87;;;5.37;;
29214;SDS011;16252;49.816;7.964;2022-08-19T09:56:48;5.13;;;4.63;;
29214;SDS011;16252;49.816;7.964;2022-08-19T09:59:14;4.28;;;3.97;;
29214;SDS011;16252;49.816;7.964;2022-08-19T10:01:40;4.15;;;3.67;;
29214;SDS011;16252;49.816;7.964;2022-08-19T10:04:05;3.35;;;3.08;;
29214;SDS011;16252;49.816;7.964;2022-08-19T10:06:34;3.15;;;2.85;;
29214;SDS011;16252;49.816;7.964;2022-08-19T10:09:01;3.13;;;2.92;;
29214;SDS011;16252;49.816;7.964;2022-08-19T10:11:29;4.93;;;3.35;;
29214;SDS011;16252;49.816;7.964;2022-08-19T10:13:54;3.90;;;3.60;;
29214;SDS011;16252;49.816;7.964;2022-08-19T10:16:20;3.50;;;3.20;;
29214;SDS011;16252;49.816;7.964;2022-08-19T10:18:48;3.50;;;3.20;;
29214;SDS011;16252;49.816;7.964;2022-08-19T10:21:19;3.60;;;3.30;;
29214;SDS011;16252;49.816;7.964;2022-08-19T10:23:48;3.78;;;3.35;;
29214;SDS011;16252;49.816;7.964;2022-08-19T10:26:16;3.55;;;3.25;;
29214;SDS011;16252;49.816;7.964;2022-08-19T10:28:46;8.73;;;3.17;;
29214;SDS011;16252;49.816;7.964;2022-08-19T10:31:13;3.35;;;3.03;;
29214;SDS011;16252;49.816;7.964;2022-08-19T10:33:48;3.13;;;2.83;;
29214;SDS011;16252;49.816;7.964;2022-08-19T10:36:18;3.22;;;2.92;;
29214;SDS011;16252;49.816;7.964;2022-08-19T10:38:45;5.40;;;3.00;;
29214;SDS011;16252;49.816;7.964;2022-08-19T10:41:15;4.10;;;2.92;;
29214;SDS011;16252;49.816;7.964;2022-08-19T10:43:42;3.47;;;3.17;;
29214;SDS011;16252;49.816;7.964;2022-08-19T10:46:10;3.60;;;3.30;;
29214;SDS011;16252;49.816;7.964;2022-08-19T10:48:38;3.35;;;3.00;;
29214;SDS011;16252;49.816;7.964;2022-08-19T10:51:04;3.30;;;3.00;;
29214;SDS011;16252;49.816;7.964;2022-08-19T10:53:48;6.00;;;3.20;;
29214;SDS011;16252;49.816;7.964;2022-08-19T10:56:15;3.03;;;2.75;;
29214;SDS011;16252;49.816;7.964;2022-08-19T10:58:59;2.90;;;2.63;;
29214;SDS011;16252;49.816;7.964;2022-08-19T11:01:27;3.17;;;2.87;;
29214;SDS011;16252;49.816;7.964;2022-08-19T11:03:54;3.03;;;2.67;;
29214;SDS011;16252;49.816;7.964;2022-08-19T11:06:21;3.33;;;3.03;;
29214;SDS011;16252;49.816;7.964;2022-08-19T11:08:46;3.58;;;3.28;;
29214;SDS011;16252;49.816;7.964;2022-08-19T11:11:12;2.40;;;2.20;;
29214;SDS011;16252;49.816;7.964;2022-08-19T11:13:38;2.75;;;2.55;;
29214;SDS011;16252;49.816;7.964;2022-08-19T11:16:09;4.47;;;2.90;;
29214;SDS011;16252;49.816;7.964;2022-08-19T11:18:39;3.08;;;2.65;;
29214;SDS011;16252;49.816;7.964;2022-08-19T11:21:08;2.75;;;2.55;;
29214;SDS011;16252;49.816;7.964;2022-08-19T11:23:45;2.95;;;2.75;;
29214;SDS011;16252;49.816;7.964;2022-08-19T11:26:12;3.88;;;3.10;;
29214;SDS011;16252;49.816;7.964;2022-08-19T11:28:39;3.53;;;3.22;;
29214;SDS011;16252;49.816;7.964;2022-08-19T11:31:08;5.75;;;3.40;;
29214;SDS011;16252;49.816;7.964;2022-08-19T11:33:35;4.25;;;3.05;;
29214;SDS011;16252;49.816;7.964;2022-08-19T11:36:00;10.40;;;3.08;;
29214;SDS011;16252;49.816;7.964;2022-08-19T11:38:26;4.13;;;3.10;;
29214;SDS011;16252;49.816;7.964;2022-08-19T11:40:55;3.05;;;2.55;;
29214;SDS011;16252;49.816;7.964;2022-08-19T11:43:22;2.95;;;2.75;;
29214;SDS011;16252;49.816;7.964;2022-08-19T11:45:47;3.20;;;2.75;;
29214;SDS011;16252;49.816;7.964;2022-08-19T11:48:13;3.53;;;3.22;;
29214;SDS011;16252;49.816;7.964;2022-08-19T11:50:38;3.70;;;3.40;;
29214;SDS011;16252;49.816;7.964;2022-08-19T11:53:06;3.28;;;2.97;;
29214;SDS011;16252;49.816;7.964;2022-08-19T11:55:32;3.13;;;2.67;;
29214;SDS011;16252;49.816;7.964;2022-08-19T11:57:57;4.97;;;2.90;;
29214;SDS011;16252;49.816;7.964;2022-08-19T12:00:22;2.53;;;2.30;;
29214;SDS011;16252;49.816;7.964;2022-08-19T12:02:48;2.92;;;2.63;;
29214;SDS011;16252;49.816;7.964;2022-08-19T12:05:13;3.25;;;2.42;;
29214;SDS011;16252;49.816;7.964;2022-08-19T12:07:39;3.13;;;2.58;;
29214;SDS011;16252;49.816;7.964;2022-08-19T12:10:08;3.22;;;2.65;;
29214;SDS011;16252;49.816;7.964;2022-08-19T12:12:34;3.33;;;3.00;;
29214;SDS011;16252;49.816;7.964;2022-08-19T12:14:59;3.00;;;2.80;;
29214;SDS011;16252;49.816;7.964;2022-08-19T12:17:25;3.35;;;3.05;;
29214;SDS011;16252;49.816;7.964;2022-08-19T12:19:52;3.05;;;2.75;;
29214;SDS011;16252;49.816;7.964;2022-08-19T12:22:17;3.47;;;3.00;;
29214;SDS011;16252;49.816;7.964;2022-08-19T12:24:43;3.05;;;2.78;;
29214;SDS011;16252;49.816;7.964;2022-08-19T12:27:08;2.92;;;2.70;;
29214;SDS011;16252;49.816;7.964;2022-08-19T12:29:34;3.83;;;3.33;;
29214;SDS011;16252;49.816;7.964;2022-08-19T12:31:59;4.40;;;3.08;;
29214;SDS011;16252;49.816;7.964;2022-08-19T12:34:28;6.28;;;2.90;;
29214;SDS011;16252;49.816;7.964;2022-08-19T12:36:55;3.38;;;2.65;;
29214;SDS011;16252;49.816;7.964;2022-08-19T12:39:22;3.10;;;2.80;;
29214;SDS011;16252;49.816;7.964;2022-08-19T12:41:47;3.45;;;2.90;;
29214;SDS011;16252;49.816;7.964;2022-08-19T12:44:13;3.53;;;3.00;;
29214;SDS011;16252;49.816;7.964;2022-08-19T12:46:39;3.13;;;2.83;;
29214;SDS011;16252;49.816;7.964;2022-08-19T12:49:04;2.97;;;2.78;;
29214;SDS011;16252;49.816;7.964;2022-08-19T12:51:29;3.00;;;2.80;;
29214;SDS011;16252;49.816;7.964;2022-08-19T12:53:56;4.07;;;2.97;;
29214;SDS011;16252;49.816;7.964;2022-08-19T12:56:21;3.10;;;2.80;;
29214;SDS011;16252;49.816;7.964;2022-08-19T12:58:47;5.88;;;3.05;;
29214;SDS011;16252;49.816;7.964;2022-08-19T13:01:13;4.28;;;3.22;;
29214;SDS011;16252;49.816;7.964;2022-08-19T13:03:40;2.72;;;2.53;;
29214;SDS011;16252;49.816;7.964;2022-08-19T13:06:08;3.30;;;2.85;;
29214;SDS011;16252;49.816;7.964;2022-08-19T13:08:33;3.45;;;3.00;;
29214;SDS011;16252;49.816;7.964;2022-08-19T13:11:06;2.92;;;2.72;;
29214;SDS011;16252;49.816;7.964;2022-08-19T13:13:37;3.92;;;2.97;;
29214;SDS011;16252;49.816;7.964;2022-08-19T13:16:05;3.03;;;2.83;;
29214;SDS011;16252;49.816;7.964;2022-08-19T13:18:31;6.38;;;3.10;;
29214;SDS011;16252;49.816;7.964;2022-08-19T13:20:56;3.50;;;2.65;;
29214;SDS011;16252;49.816;7.964;2022-08-19T13:23:22;4.22;;;2.50;;
29214;SDS011;16252;49.816;7.964;2022-08-19T13:25:55;2.38;;;2.17;;
29214;SDS011;16252;49.816;7.964;2022-08-19T13:28:21;2.75;;;2.47;;
29214;SDS011;16252;49.816;7.964;2022-08-19T13:30:47;2.88;;;2.60;;
29214;SDS011;16252;49.816;7.964;2022-08-19T13:33:31;2.60;;;2.40;;
29214;SDS011;16252;49.816;7.964;2022-08-19T13:35:58;2.47;;;2.28;;
29214;SDS011;16252;49.816;7.964;2022-08-19T13:38:25;7.38;;;2.72;;
29214;SDS011;16252;49.816;7.964;2022-08-19T13:40:52;6.78;;;2.95;;
29214;SDS011;16252;49.816;7.964;2022-08-19T13:43:20;3.25;;;2.90;;
29214;SDS011;16252;49.816;7.964;2022-08-19T13:45:47;3.10;;;2.80;;
29214;SDS011;16252;49.816;7.964;2022-08-19T13:48:13;3.33;;;2.58;;
29214;SDS011;16252;49.816;7.964;2022-08-19T13:50:40;4.45;;;3.10;;
29214;SDS011;16252;49.816;7.964;2022-08-19T13:53:07;3.28;;;3.00;;
29214;SDS011;16252;49.816;7.964;2022-08-19T13:55:34;4.03;;;2.45;;
29214;SDS011;16252;49.816;7.964;2022-08-19T13:58:01;3.60;;;3.30;;
29214;SDS011;16252;49.816;7.964;2022-08-19T14:00:27;4.47;;;2.95;;
29214;SDS011;16252;49.816;7.964;2022-08-19T14:02:55;3.58;;;2.88;;
29214;SDS011;16252;49.816;7.964;2022-08-19T14:05:22;3.88;;;3.17;;
29214;SDS011;16252;49.816;7.964;2022-08-19T14:07:49;3.63;;;3.17;;
29214;SDS011;16252;49.816;7.964;2022-08-19T14:10:15;3.97;;;3.58;;
29214;SDS011;16252;49.816;7.964;2022-08-19T14:12:41;4.10;;;3.40;;
29214;SDS011;16252;49.816;7.964;2022-08-19T14:15:07;3.60;;;3.30;;
29214;SDS011;16252;49.816;7.964;2022-08-19T14:17:33;3.50;;;3.20;;
29214;SDS011;16252;49.816;7.964;2022-08-19T14:20:00;4.13;;;3.40;;
29214;SDS011;16252;49.816;7.964;2022-08-19T14:22:30;3.13;;;2.92;;
29214;SDS011;16252;49.816;7.964;2022-08-19T14:24:56;3.80;;;3.50;;
29214;SDS011;16252;49.816;7.964;2022-08-19T14:27:21;4.00;;;3.40;;
29214;SDS011;16252;49.816;7.964;2022-08-19T14:29:48;3.58;;;3.28;;
29214;SDS011;16252;49.816;7.964;2022-08-19T14:32:14;4.68;;;3.38;;
29214;SDS011;16252;49.816;7.964;2022-08-19T14:34:40;4.20;;;3.60;;
29214;SDS011;16252;49.816;7.964;2022-08-19T14:37:05;3.88;;;3.50;;
29214;SDS011;16252;49.816;7.964;2022-08-19T14:39:31;5.43;;;3.80;;
29214;SDS011;16252;49.816;7.964;2022-08-19T14:41:56;3.70;;;3.40;;
29214;SDS011;16252;49.816;7.964;2022-08-19T14:44:23;7.72;;;2.97;;
29214;SDS011;16252;49.816;7.964;2022-08-19T14:46:48;4.10;;;3.70;;
29214;SDS011;16252;49.816;7.964;2022-08-19T14:49:13;3.97;;;3.53;;
29214;SDS011;16252;49.816;7.964;2022-08-19T14:51:38;4.30;;;3.90;;
29214;SDS011;16252;49.816;7.964;2022-08-19T14:54:04;5.60;;;3.72;;
29214;SDS011;16252;49.816;7.964;2022-08-19T14:56:29;4.55;;;3.60;;
29214;SDS011;16252;49.816;7.964;2022-08-19T14:58:55;3.67;;;3.38;;
29214;SDS011;16252;49.816;7.964;2022-08-19T15:01:24;4.10;;;3.22;;
29214;SDS011;16252;49.816;7.964;2022-08-19T15:03:50;5.63;;;3.80;;